Time;durP1;ratioP1;P1;durP2;ratioP2;P2;SDS_P1;SDS_P2;PMS_P1;PMS_P2;Temp;Humidity;BMP_temperature;BMP_pressure;BME280_temperature;BME280_humidity;BME280_pressure;Samples;Min_cycle;Max_cycle;Signal;HPM_P1;HPM_P2
2023/04/30 00:02:00;;;;;;;2.90;0.70;;;20.00;70.60;;;;;;4160661;28;20076;-52
2023/04/30 00:04:22;;;;;;;0.55;0.55;;;20.00;70.60;;;;;;4177539;28;20029;-50
2023/04/30 00:06:45;;;;;;;2.33;0.55;;;20.10;70.70;;;;;;4174619;28;20133;-45
2023/04/30 00:09:07;;;;;;;0.68;0.40;;;20.10;70.70;;;;;;4175171;28;20037;-54
2023/04/30 00:11:29;;;;;;;1.23;0.57;;;20.10;70.70;;;;;;4173767;28;20041;-54
2023/04/30 00:13:52;;;;;;;1.40;0.50;;;20.10;70.60;;;;;;4176011;28;20037;-51
2023/04/30 00:16:14;;;;;;;1.27;0.65;;;20.10;70.50;;;;;;4169571;28;20413;-51
2023/04/30 00:18:37;;;;;;;0.98;0.50;;;20.10;70.60;;;;;;4165815;28;20080;-57
2023/04/30 00:20:59;;;;;;;1.05;0.40;;;20.10;70.90;;;;;;4168869;28;20040;-53
2023/04/30 00:23:22;;;;;;;1.63;0.52;;;20.10;70.70;;;;;;4169943;28;20047;-54
2023/04/30 00:25:44;;;;;;;1.02;0.70;;;20.10;70.40;;;;;;4172865;28;20588;-49
2023/04/30 00:28:07;;;;;;;3.45;0.77;;;20.10;70.80;;;;;;4171199;28;20048;-53
2023/04/30 00:30:29;;;;;;;2.60;0.70;;;20.10;70.90;;;;;;4169245;28;20087;-53
2023/04/30 00:32:51;;;;;;;2.05;0.60;;;20.10;71.50;;;;;;4171234;28;20037;-51
2023/04/30 00:35:14;;;;;;;3.15;0.88;;;20.10;70.80;;;;;;4172954;28;20037;-51
2023/04/30 00:37:36;;;;;;;3.72;0.70;;;20.10;70.90;;;;;;4153685;28;20163;-51
2023/04/30 00:39:59;;;;;;;2.88;0.73;;;20.20;71.10;;;;;;4171147;28;20029;-53
2023/04/30 00:42:21;;;;;;;2.13;0.70;;;20.10;70.90;;;;;;4168893;28;20099;-53
2023/04/30 00:44:44;;;;;;;1.10;0.50;;;20.20;70.90;;;;;;4155917;28;20514;-51
2023/04/30 00:47:06;;;;;;;4.20;0.95;;;20.20;70.90;;;;;;4171552;28;20428;-51
2023/04/30 00:49:28;;;;;;;2.13;0.38;;;20.20;70.70;;;;;;4172091;28;20039;-52
2023/04/30 00:51:52;;;;;;;3.30;0.55;;;20.20;70.80;;;;;;4164503;28;20098;-53
2023/04/30 00:54:14;;;;;;;4.90;1.10;;;20.20;70.70;;;;;;4171417;28;20052;-55
2023/04/30 00:56:37;;;;;;;8.07;2.38;;;20.20;70.70;;;;;;4169047;28;20121;-50
2023/04/30 00:59:00;;;;;;;1.55;0.47;;;20.30;70.70;;;;;;4172402;28;20148;-51
2023/04/30 01:01:27;;;;;;;1.02;0.63;;;20.20;70.70;;;;;;4169948;28;20043;-57
2023/04/30 01:03:51;;;;;;;1.00;0.50;;;20.20;70.70;;;;;;4166023;28;20044;-58
2023/04/30 01:06:13;;;;;;;2.80;0.73;;;20.30;70.60;;;;;;4177719;28;20063;-55
2023/04/30 01:08:35;;;;;;;3.63;0.70;;;20.30;70.70;;;;;;4160688;28;20503;-54
2023/04/30 01:11:07;;;;;;;9.40;0.70;;;20.30;70.70;;;;;;4155720;28;20173;-49
2023/04/30 01:13:38;;;;;;;2.00;0.88;;;20.30;70.90;;;;;;4173235;28;20044;-58
2023/04/30 01:16:13;;;;;;;4.43;0.90;;;20.30;70.90;;;;;;4167081;28;20045;-55
2023/04/30 01:18:43;;;;;;;5.15;0.95;;;20.30;71.30;;;;;;4170614;28;20135;-56
2023/04/30 01:21:07;;;;;;;4.50;0.88;;;20.30;71.30;;;;;;4168959;28;20564;-53
2023/04/30 01:24:22;;;;;;;5.07;1.38;;;20.30;71.30;;;;;;4172069;28;20415;-49
2023/04/30 01:27:06;;;;;;;7.65;1.38;;;20.30;71.30;;;;;;4115796;28;20046;-45
2023/04/30 01:29:29;;;;;;;6.85;1.45;;;20.30;71.50;;;;;;4173923;28;20067;-52
2023/04/30 01:31:52;;;;;;;9.95;1.63;;;20.30;72.30;;;;;;4167888;28;20078;-52
2023/04/30 01:34:14;;;;;;;5.40;1.17;;;20.40;72.80;;;;;;4173668;28;20044;-50
2023/04/30 01:36:58;;;;;;;4.07;1.33;;;20.40;72.50;;;;;;4169622;28;20037;-50
2023/04/30 01:39:33;;;;;;;3.38;1.10;;;20.40;72.30;;;;;;4159587;23;20054;-65
2023/04/30 01:42:25;;;;;;;5.75;0.90;;;20.50;72.00;;;;;;4139282;28;20422;-69
2023/04/30 01:44:47;;;;;;;5.25;1.95;;;20.50;71.30;;;;;;4142442;28;20046;-62
2023/04/30 01:47:24;;;;;;;12.75;2.00;;;20.50;71.00;;;;;;4139574;28;20042;-59
2023/04/30 01:50:20;;;;;;;9.25;1.70;;;20.50;71.60;;;;;;4137007;28;20470;-60
2023/04/30 01:52:51;;;;;;;4.03;1.65;;;20.60;71.10;;;;;;4138798;28;20474;-59
2023/04/30 01:55:56;;;;;;;1.35;0.98;;;20.60;71.00;;;;;;4134840;28;20060;-59
2023/04/30 01:58:21;;;;;;;27.73;3.13;;;20.60;70.90;;;;;;4136220;28;20050;-65
2023/04/30 02:00:45;;;;;;;43.55;3.70;;;20.60;71.00;;;;;;4136521;28;20042;-60
2023/04/30 02:03:07;;;;;;;22.27;3.88;;;20.60;71.00;;;;;;4132077;28;20046;-53
2023/04/30 02:05:30;;;;;;;15.57;3.00;;;20.70;71.10;;;;;;4125347;28;20058;-61
2023/04/30 02:07:52;;;;;;;7.82;2.40;;;20.70;71.10;;;;;;4127415;28;20041;-62
2023/04/30 02:10:18;;;;;;;9.13;1.98;;;20.70;70.60;;;;;;4127367;28;20530;-59
2023/04/30 02:12:40;;;;;;;10.27;1.90;;;20.70;70.70;;;;;;4128437;28;20068;-58
2023/04/30 02:15:04;;;;;;;7.90;1.60;;;20.70;70.90;;;;;;4126908;28;20035;-56
2023/04/30 02:17:26;;;;;;;4.75;1.08;;;20.70;70.20;;;;;;4124986;28;20390;-56
2023/04/30 02:19:49;;;;;;;3.60;1.45;;;20.70;69.70;;;;;;4126571;28;20100;-57
2023/04/30 02:22:11;;;;;;;3.67;1.40;;;20.70;69.50;;;;;;4124446;28;20038;-58
2023/04/30 02:24:33;;;;;;;2.25;1.10;;;20.70;69.40;;;;;;4124208;28;20077;-58
2023/04/30 02:26:56;;;;;;;3.13;0.98;;;20.70;69.30;;;;;;4124141;28;20038;-58
2023/04/30 02:29:18;;;;;;;3.20;1.08;;;20.70;69.30;;;;;;4127434;28;20460;-55
2023/04/30 02:31:41;;;;;;;2.28;1.00;;;20.60;69.20;;;;;;4125625;28;20342;-57
2023/04/30 02:34:03;;;;;;;1.58;0.80;;;20.60;69.20;;;;;;4123453;28;20030;-58
2023/04/30 02:36:26;;;;;;;3.75;1.15;;;20.60;69.30;;;;;;4123177;28;20479;-58
2023/04/30 02:38:48;;;;;;;4.50;0.70;;;20.60;69.30;;;;;;4135295;28;20062;-57
2023/04/30 02:41:11;;;;;;;1.35;0.70;;;20.60;69.30;;;;;;4145321;28;20056;-59
2023/04/30 02:43:33;;;;;;;1.45;0.60;;;20.60;69.30;;;;;;4131785;28;20129;-58
2023/04/30 02:45:55;;;;;;;1.95;0.60;;;20.50;69.30;;;;;;4144026;28;20037;-60
2023/04/30 02:48:18;;;;;;;0.43;0.43;;;20.50;69.30;;;;;;4123690;28;20078;-56
2023/04/30 02:50:40;;;;;;;1.67;0.70;;;20.50;69.30;;;;;;4135555;28;20073;-58
2023/04/30 02:53:03;;;;;;;0.68;0.60;;;20.50;69.30;;;;;;4140404;28;20053;-54
2023/04/30 02:55:25;;;;;;;1.73;0.50;;;20.50;69.30;;;;;;4143830;28;20465;-58
2023/04/30 02:57:48;;;;;;;1.30;0.60;;;20.50;69.30;;;;;;4143801;28;20075;-58
2023/04/30 03:00:11;;;;;;;0.70;0.50;;;20.50;69.30;;;;;;4144961;28;20034;-57
2023/04/30 03:02:33;;;;;;;0.70;0.50;;;20.50;69.30;;;;;;4139401;28;20443;-57
2023/04/30 03:04:56;;;;;;;1.85;0.60;;;20.50;69.00;;;;;;4144664;28;20037;-58
2023/04/30 03:07:18;;;;;;;0.40;0.40;;;20.50;69.90;;;;;;4134460;28;20159;-58
2023/04/30 03:09:41;;;;;;;0.95;0.50;;;20.50;69.30;;;;;;4144423;28;20537;-58
2023/04/30 03:12:04;;;;;;;1.02;0.60;;;20.50;69.20;;;;;;4143296;28;20037;-57
2023/04/30 03:14:26;;;;;;;1.55;0.50;;;20.50;69.20;;;;;;4135112;28;20060;-58
2023/04/30 03:16:48;;;;;;;0.40;0.40;;;20.50;69.10;;;;;;4144228;28;20479;-57
2023/04/30 03:19:11;;;;;;;0.98;0.40;;;20.50;69.10;;;;;;4126207;28;20038;-57
2023/04/30 03:21:33;;;;;;;0.73;0.60;;;20.50;69.00;;;;;;4145303;28;20041;-56
2023/04/30 03:23:56;;;;;;;2.47;1.35;;;20.60;69.00;;;;;;4128550;28;20605;-57
2023/04/30 03:26:18;;;;;;;0.60;0.38;;;20.60;68.90;;;;;;4145525;28;20494;-58
2023/04/30 03:28:40;;;;;;;0.40;0.30;;;20.60;68.80;;;;;;4143624;28;20033;-56
2023/04/30 03:31:06;;;;;;;1.23;0.52;;;20.60;68.70;;;;;;4145185;28;20057;-58
2023/04/30 03:33:28;;;;;;;0.52;0.30;;;20.70;68.70;;;;;;4143346;28;20040;-59
2023/04/30 03:35:52;;;;;;;0.57;0.43;;;20.70;68.60;;;;;;4145693;28;20453;-58
2023/04/30 03:38:14;;;;;;;0.73;0.50;;;20.70;68.60;;;;;;4141408;28;20092;-58
2023/04/30 03:40:37;;;;;;;0.82;0.40;;;20.70;68.50;;;;;;4137112;28;20060;-58
2023/04/30 03:42:59;;;;;;;0.68;0.40;;;20.70;68.40;;;;;;4136483;28;20038;-57
2023/04/30 03:45:22;;;;;;;0.63;0.40;;;20.80;68.40;;;;;;4122557;28;20042;-56
2023/04/30 03:47:44;;;;;;;0.52;0.52;;;20.80;68.30;;;;;;4142812;28;20037;-58
2023/04/30 03:50:07;;;;;;;0.30;0.30;;;20.90;68.20;;;;;;4144473;28;20114;-54
2023/04/30 03:52:30;;;;;;;0.40;0.40;;;20.90;68.00;;;;;;4126285;28;20042;-58
2023/04/30 03:54:53;;;;;;;0.40;0.40;;;21.00;68.30;;;;;;4141213;28;20096;-58
2023/04/30 03:57:15;;;;;;;0.38;0.38;;;21.00;67.90;;;;;;4142795;28;20041;-57
2023/04/30 03:59:38;;;;;;;0.47;0.47;;;21.00;67.80;;;;;;4139929;28;20048;-58
2023/04/30 04:02:01;;;;;;;0.45;0.30;;;21.10;67.60;;;;;;4143084;28;20033;-58
2023/04/30 04:04:23;;;;;;;0.47;0.45;;;21.10;67.50;;;;;;4138233;28;20486;-58
2023/04/30 04:06:45;;;;;;;0.40;0.40;;;21.20;67.40;;;;;;4144031;28;20117;-58
2023/04/30 04:09:08;;;;;;;0.30;0.30;;;21.20;67.40;;;;;;4136412;28;20095;-56
2023/04/30 04:11:30;;;;;;;0.82;0.50;;;21.20;67.20;;;;;;4140839;28;20371;-58
2023/04/30 04:13:53;;;;;;;0.65;0.40;;;21.30;67.20;;;;;;4143901;28;20061;-58
2023/04/30 04:16:15;;;;;;;1.30;0.40;;;21.30;67.20;;;;;;4142067;28;20045;-58
2023/04/30 04:18:37;;;;;;;0.30;0.30;;;21.30;67.10;;;;;;4141965;28;20049;-57
2023/04/30 04:21:03;;;;;;;0.30;0.30;;;21.40;67.00;;;;;;4143602;28;20053;-58
2023/04/30 04:23:25;;;;;;;0.28;0.28;;;21.40;66.90;;;;;;4127545;28;20038;-56
2023/04/30 04:25:51;;;;;;;0.38;0.38;;;21.40;66.90;;;;;;4144737;28;20100;-59
2023/04/30 04:28:13;;;;;;;0.43;0.43;;;21.40;66.90;;;;;;4142019;28;20557;-58
2023/04/30 04:30:36;;;;;;;0.30;0.30;;;21.50;66.80;;;;;;4143200;28;20412;-58
2023/04/30 04:32:59;;;;;;;0.47;0.47;;;21.50;66.70;;;;;;4141714;28;20077;-58
2023/04/30 04:35:21;;;;;;;0.30;0.30;;;21.60;66.70;;;;;;4142855;28;20532;-55
2023/04/30 04:37:44;;;;;;;0.40;0.30;;;21.60;66.50;;;;;;4129337;28;20123;-58
2023/04/30 04:40:07;;;;;;;0.70;0.50;;;21.70;66.40;;;;;;4122330;28;20138;-58
2023/04/30 04:42:31;;;;;;;0.22;0.22;;;21.70;66.40;;;;;;4127035;28;20042;-57
2023/04/30 04:44:53;;;;;;;0.40;0.40;;;21.70;66.30;;;;;;4143193;28;20037;-59
2023/04/30 04:47:18;;;;;;;0.30;0.30;;;21.80;66.20;;;;;;4137099;28;20037;-60
2023/04/30 04:49:40;;;;;;;0.30;0.30;;;21.90;66.20;;;;;;4123673;28;20035;-58
2023/04/30 04:52:04;;;;;;;0.30;0.30;;;21.90;66.10;;;;;;4141996;28;20160;-59
2023/04/30 04:54:26;;;;;;;0.40;0.40;;;22.00;66.00;;;;;;4124054;28;20042;-58
2023/04/30 04:56:50;;;;;;;0.32;0.32;;;22.00;65.90;;;;;;4140348;28;20046;-59
2023/04/30 04:59:13;;;;;;;0.30;0.30;;;22.10;65.90;;;;;;4139915;28;20046;-59
2023/04/30 05:01:35;;;;;;;0.30;0.30;;;22.10;65.60;;;;;;4140002;28;20045;-58
2023/04/30 05:03:57;;;;;;;0.40;0.40;;;22.10;65.40;;;;;;4133271;28;20042;-59
2023/04/30 05:06:20;;;;;;;0.30;0.30;;;22.20;65.20;;;;;;4138248;28;20037;-59
2023/04/30 05:08:42;;;;;;;0.43;0.40;;;22.20;65.00;;;;;;4136862;28;20474;-58
2023/04/30 05:11:05;;;;;;;0.35;0.30;;;22.30;65.00;;;;;;4138405;28;20503;-59
2023/04/30 05:13:27;;;;;;;0.82;0.40;;;22.30;64.70;;;;;;4127727;28;20116;-59
2023/04/30 05:15:54;;;;;;;0.90;0.20;;;22.40;64.60;;;;;;4143043;28;20038;-59
2023/04/30 05:18:16;;;;;;;0.30;0.30;;;22.40;64.90;;;;;;4143371;28;20042;-59
2023/04/30 05:20:39;;;;;;;0.38;0.38;;;22.40;64.30;;;;;;4122504;28;20034;-59
2023/04/30 05:23:02;;;;;;;1.40;0.30;;;22.40;64.50;;;;;;4139182;28;20430;-60
2023/04/30 05:25:24;;;;;;;1.35;0.40;;;22.30;64.50;;;;;;4140634;28;20092;-56
2023/04/30 05:27:46;;;;;;;2.47;0.30;;;22.30;64.70;;;;;;4140053;28;20041;-59
2023/04/30 05:30:10;;;;;;;0.30;0.30;;;22.20;64.70;;;;;;4144282;28;20034;-60
2023/04/30 05:32:32;;;;;;;0.30;0.30;;;22.20;64.90;;;;;;4127323;28;20043;-59
2023/04/30 05:34:54;;;;;;;0.30;0.30;;;22.10;65.00;;;;;;4136229;28;20038;-59
2023/04/30 05:37:18;;;;;;;1.10;0.77;;;22.10;65.00;;;;;;4141824;28;20472;-59
2023/04/30 05:39:41;;;;;;;0.93;0.30;;;22.00;65.10;;;;;;4136199;28;20058;-58
2023/04/30 05:42:03;;;;;;;0.20;0.20;;;22.00;65.20;;;;;;4125848;28;20039;-59
2023/04/30 05:44:29;;;;;;;1.13;0.30;;;22.00;65.30;;;;;;4142259;28;20148;-59
2023/04/30 05:46:51;;;;;;;0.55;0.40;;;21.90;65.30;;;;;;4138400;28;20295;-59
2023/04/30 05:49:16;;;;;;;1.65;0.40;;;21.90;65.40;;;;;;4140708;28;20064;-61
2023/04/30 05:51:39;;;;;;;0.52;0.30;;;21.90;65.50;;;;;;4141458;28;20421;-59
2023/04/30 05:54:01;;;;;;;1.08;0.20;;;21.90;65.50;;;;;;4141283;28;20076;-59
2023/04/30 05:56:24;;;;;;;1.25;0.28;;;21.90;65.50;;;;;;4135782;28;20561;-59
2023/04/30 05:58:46;;;;;;;0.30;0.30;;;21.80;66.10;;;;;;4141620;28;20498;-59
2023/04/30 06:01:10;;;;;;;0.47;0.20;;;21.80;65.60;;;;;;4139213;28;20037;-58
2023/04/30 06:03:32;;;;;;;0.40;0.40;;;21.80;65.60;;;;;;4125774;28;20423;-59
2023/04/30 06:05:54;;;;;;;0.50;0.50;;;21.70;65.60;;;;;;4120006;28;20109;-59
2023/04/30 06:08:17;;;;;;;2.30;0.40;;;21.70;65.70;;;;;;4139047;28;20046;-59
2023/04/30 06:10:39;;;;;;;1.05;0.45;;;21.70;65.30;;;;;;4140518;28;20067;-59
2023/04/30 06:13:02;;;;;;;0.20;0.20;;;21.70;65.70;;;;;;4141336;28;20405;-59
2023/04/30 06:15:24;;;;;;;0.60;0.40;;;21.70;65.80;;;;;;4137969;28;20043;-59
2023/04/30 06:17:47;;;;;;;0.40;0.35;;;21.70;65.80;;;;;;4138693;28;20125;-61
2023/04/30 06:20:10;;;;;;;6.47;1.00;;;21.60;65.60;;;;;;4138329;28;20415;-59
2023/04/30 06:22:33;;;;;;;6.95;0.90;;;21.70;66.10;;;;;;4139245;28;20034;-59
2023/04/30 06:24:56;;;;;;;4.30;0.60;;;21.60;66.00;;;;;;4116198;28;20041;-55
2023/04/30 06:27:19;;;;;;;5.97;0.70;;;21.70;66.30;;;;;;4139701;28;20120;-59
2023/04/30 06:29:41;;;;;;;6.95;0.80;;;21.70;66.50;;;;;;4135740;28;20103;-59
2023/04/30 06:32:04;;;;;;;3.20;0.85;;;21.70;66.50;;;;;;4136074;28;20490;-58
2023/04/30 06:34:26;;;;;;;4.95;1.10;;;21.70;66.80;;;;;;4143194;28;20041;-65
2023/04/30 06:36:49;;;;;;;2.92;1.02;;;21.70;67.10;;;;;;4142486;28;20042;-64
2023/04/30 06:39:13;;;;;;;7.75;1.15;;;21.70;67.20;;;;;;4128791;28;20485;-62
2023/04/30 06:41:35;;;;;;;7.13;1.17;;;21.80;67.40;;;;;;4136873;28;20068;-60
2023/04/30 06:43:58;;;;;;;6.05;1.08;;;21.90;67.50;;;;;;4142764;28;20045;-64
2023/04/30 06:46:20;;;;;;;7.20;1.27;;;22.10;66.90;;;;;;4142364;28;20199;-63
2023/04/30 06:48:43;;;;;;;3.53;0.98;;;22.20;66.70;;;;;;4140780;28;20132;-65
2023/04/30 06:51:06;;;;;;;6.05;0.73;;;22.20;66.50;;;;;;4137026;28;20547;-66
2023/04/30 06:53:28;;;;;;;4.90;0.70;;;22.20;66.70;;;;;;4143932;28;20042;-65
2023/04/30 06:55:51;;;;;;;2.63;0.50;;;22.20;66.90;;;;;;4138703;28;20049;-67
2023/04/30 06:58:14;;;;;;;1.42;0.60;;;22.10;67.00;;;;;;4139407;28;20439;-70
2023/04/30 07:00:36;;;;;;;4.43;0.50;;;22.10;67.20;;;;;;4139362;28;20065;-57
2023/04/30 07:03:03;;;;;;;1.38;0.50;;;22.10;67.30;;;;;;4142038;28;20053;-60
2023/04/30 07:05:26;;;;;;;0.55;0.30;;;22.00;66.10;;;;;;4140390;28;20034;-60
2023/04/30 07:07:49;;;;;;;0.30;0.30;;;22.00;65.50;;;;;;4135252;28;20038;-67
2023/04/30 07:10:12;;;;;;;0.35;0.32;;;22.00;65.40;;;;;;4123237;28;20034;-61
2023/04/30 07:12:34;;;;;;;2.17;0.52;;;21.90;65.20;;;;;;4119475;28;20499;-51
2023/04/30 07:14:57;;;;;;;1.35;0.40;;;21.90;65.20;;;;;;4135136;28;20080;-53
2023/04/30 07:17:19;;;;;;;2.95;0.40;;;21.90;65.20;;;;;;4141611;28;20045;-54
2023/04/30 07:19:42;;;;;;;0.85;0.45;;;21.80;65.20;;;;;;4142708;28;20038;-48
2023/04/30 07:22:04;;;;;;;2.00;0.90;;;21.80;65.40;;;;;;4133719;28;20453;-47
2023/04/30 07:24:27;;;;;;;1.13;0.50;;;21.70;65.40;;;;;;4120755;28;20086;-50
2023/04/30 07:26:49;;;;;;;0.30;0.30;;;21.70;65.40;;;;;;4136792;28;20033;-52
2023/04/30 07:29:12;;;;;;;0.90;0.43;;;21.70;65.50;;;;;;4140072;28;20079;-58
2023/04/30 07:31:34;;;;;;;1.48;0.38;;;21.70;65.50;;;;;;4136476;28;20042;-56
2023/04/30 07:33:57;;;;;;;0.77;0.32;;;21.70;65.50;;;;;;4143673;28;20456;-56
2023/04/30 07:36:19;;;;;;;0.30;0.30;;;21.70;66.30;;;;;;4139190;28;20037;-59
2023/04/30 07:38:42;;;;;;;0.75;0.30;;;21.70;65.70;;;;;;4137885;28;20085;-59
2023/04/30 07:41:05;;;;;;;2.17;0.30;;;21.60;65.70;;;;;;4135726;28;20034;-58
2023/04/30 07:43:28;;;;;;;3.85;0.50;;;21.60;65.60;;;;;;4138795;28;20479;-56
2023/04/30 07:45:52;;;;;;;0.40;0.40;;;21.60;65.70;;;;;;4144079;28;20033;-54
2023/04/30 07:48:15;;;;;;;0.30;0.30;;;21.60;65.70;;;;;;4142286;28;20287;-53
2023/04/30 07:50:38;;;;;;;0.30;0.22;;;21.60;65.70;;;;;;4134809;28;20414;-52
2023/04/30 07:53:01;;;;;;;0.77;0.50;;;21.50;65.60;;;;;;4139451;28;20125;-51
2023/04/30 07:55:23;;;;;;;0.77;0.30;;;21.50;65.70;;;;;;4135672;28;20038;-53
2023/04/30 07:57:46;;;;;;;1.02;0.50;;;21.50;65.70;;;;;;4140451;28;20309;-54
2023/04/30 08:00:12;;;;;;;0.40;0.30;;;21.50;65.70;;;;;;4140873;28;20450;-55
2023/04/30 08:02:36;;;;;;;1.90;0.50;;;21.50;65.70;;;;;;4139356;28;20034;-56
2023/04/30 08:04:58;;;;;;;1.65;0.80;;;21.50;65.80;;;;;;4142381;28;20096;-47
2023/04/30 08:07:21;;;;;;;1.50;0.90;;;21.50;65.80;;;;;;4137686;28;20049;-52
2023/04/30 08:09:43;;;;;;;2.10;1.00;;;21.50;65.90;;;;;;4136616;28;20479;-50
2023/04/30 08:12:06;;;;;;;2.28;0.95;;;21.50;65.90;;;;;;4139120;28;20045;-53
2023/04/30 08:14:28;;;;;;;3.15;1.02;;;21.50;65.90;;;;;;4139953;28;20466;-53
2023/04/30 08:16:51;;;;;;;2.25;1.13;;;21.50;66.60;;;;;;4143472;28;20042;-49
2023/04/30 08:19:13;;;;;;;2.40;1.25;;;21.50;66.00;;;;;;4123002;28;20125;-51
2023/04/30 08:21:37;;;;;;;1.80;1.13;;;21.40;66.00;;;;;;4138919;28;20041;-48
2023/04/30 08:23:59;;;;;;;2.88;1.48;;;21.40;66.10;;;;;;4121378;28;20035;-49
2023/04/30 08:26:22;;;;;;;2.55;1.45;;;21.40;66.10;;;;;;4141959;28;21015;-49
2023/04/30 08:28:44;;;;;;;1.55;1.45;;;21.40;66.10;;;;;;4140403;28;20093;-51
2023/04/30 08:31:07;;;;;;;3.00;1.30;;;21.40;66.20;;;;;;4142112;28;20045;-52
2023/04/30 08:33:30;;;;;;;3.35;1.42;;;21.40;66.30;;;;;;4141637;28;20135;-50
2023/04/30 08:35:53;;;;;;;2.90;1.20;;;21.40;66.30;;;;;;4141251;28;20132;-52
2023/04/30 08:38:16;;;;;;;1.67;1.17;;;21.30;66.30;;;;;;4141499;28;20552;-51
2023/04/30 08:40:40;;;;;;;2.55;1.20;;;21.30;66.30;;;;;;4140983;28;20088;-60
2023/04/30 08:43:10;;;;;;;3.72;1.33;;;21.30;66.30;;;;;;4128798;28;20045;-58
2023/04/30 08:45:34;;;;;;;8.63;1.27;;;21.30;66.60;;;;;;4123344;28;20070;-59
2023/04/30 08:47:59;;;;;;;2.03;1.20;;;21.40;67.20;;;;;;4115778;28;20578;-64
2023/04/30 08:50:21;;;;;;;3.17;1.13;;;21.40;66.80;;;;;;4133980;28;20172;-61
2023/04/30 08:52:44;;;;;;;1.63;0.85;;;21.40;66.80;;;;;;4119779;28;20038;-57
2023/04/30 08:55:10;;;;;;;1.60;0.95;;;21.40;66.90;;;;;;4134630;28;20410;-58
2023/04/30 08:57:32;;;;;;;5.70;1.17;;;21.40;67.00;;;;;;4128161;28;20053;-61
2023/04/30 08:59:55;;;;;;;1.30;1.00;;;21.40;67.10;;;;;;4132848;28;20120;-59
2023/04/30 09:02:17;;;;;;;1.75;0.80;;;21.50;67.30;;;;;;4129604;28;20081;-59
2023/04/30 09:04:40;;;;;;;1.67;1.02;;;21.50;67.40;;;;;;4134347;28;20060;-61
2023/04/30 09:07:03;;;;;;;1.35;0.90;;;21.50;67.50;;;;;;4128555;28;20046;-59
2023/04/30 09:09:30;;;;;;;2.30;0.95;;;21.50;67.50;;;;;;4131333;28;20042;-60
2023/04/30 09:11:53;;;;;;;2.00;1.17;;;21.50;67.20;;;;;;4134817;28;20038;-60
2023/04/30 09:14:26;;;;;;;1.70;1.20;;;21.50;67.20;;;;;;4135362;28;20084;-64
2023/04/30 09:16:51;;;;;;;1.25;0.77;;;21.60;67.20;;;;;;4136669;28;20172;-57
2023/04/30 09:19:27;;;;;;;2.35;0.90;;;21.50;67.20;;;;;;4123328;28;20502;-60
2023/04/30 09:21:50;;;;;;;1.15;0.93;;;21.60;67.30;;;;;;4119720;28;20399;-57
2023/04/30 09:24:12;;;;;;;0.98;0.80;;;21.60;67.30;;;;;;4118874;28;20137;-58
2023/04/30 09:26:37;;;;;;;3.72;0.80;;;21.60;67.20;;;;;;4127366;28;20050;-53
2023/04/30 09:29:06;;;;;;;2.40;0.82;;;21.60;67.80;;;;;;4134403;28;20092;-60
2023/04/30 09:31:28;;;;;;;9.40;1.08;;;21.60;67.20;;;;;;4129741;28;20554;-52
2023/04/30 09:33:52;;;;;;;1.33;0.73;;;21.60;67.20;;;;;;4130287;28;20038;-58
2023/04/30 09:36:15;;;;;;;2.70;0.90;;;21.60;67.20;;;;;;4116622;28;20038;-56
2023/04/30 09:38:38;;;;;;;2.17;0.75;;;21.70;67.00;;;;;;4133157;28;20145;-59
2023/04/30 09:41:01;;;;;;;0.77;0.67;;;21.70;67.00;;;;;;4138346;28;20042;-54
2023/04/30 09:43:24;;;;;;;1.17;0.80;;;21.70;66.80;;;;;;4139598;28;20045;-61
2023/04/30 09:45:50;;;;;;;0.98;0.40;;;21.70;66.80;;;;;;4138043;28;20037;-60
2023/04/30 09:48:15;;;;;;;0.70;0.65;;;21.70;66.70;;;;;;4137457;28;20045;-58
2023/04/30 09:50:41;;;;;;;2.22;0.77;;;21.70;66.70;;;;;;4139437;28;20045;-58
2023/04/30 09:53:12;;;;;;;9.27;1.13;;;21.70;66.70;;;;;;4135441;28;20037;-59
2023/04/30 09:55:38;;;;;;;1.58;0.85;;;21.70;66.60;;;;;;4139402;28;20034;-60
2023/04/30 09:58:02;;;;;;;0.70;0.60;;;21.70;66.50;;;;;;4138935;28;20053;-57
2023/04/30 10:00:24;;;;;;;1.33;0.70;;;21.70;66.50;;;;;;4137529;28;20084;-60
2023/04/30 10:02:47;;;;;;;7.78;1.23;;;21.70;66.50;;;;;;4139259;28;20541;-68
2023/04/30 10:05:10;;;;;;;14.95;1.25;;;21.80;66.20;;;;;;4140447;28;20049;-62
2023/04/30 10:07:38;;;;;;;4.77;0.73;;;21.80;66.10;;;;;;4138570;28;20417;-64
2023/04/30 10:10:08;;;;;;;3.03;0.90;;;21.80;66.00;;;;;;4143172;28;20275;-60
2023/04/30 10:12:59;;;;;;;1.35;0.77;;;21.80;65.70;;;;;;4139082;28;20760;-66
2023/04/30 10:15:29;;;;;;;1.77;1.00;;;21.80;65.50;;;;;;4143029;28;20037;-65
2023/04/30 10:18:08;;;;;;;1.75;0.65;;;21.80;65.40;;;;;;4143019;28;20061;-61
2023/04/30 10:20:34;;;;;;;0.95;0.80;;;21.80;65.30;;;;;;4142236;28;20121;-62
2023/04/30 10:22:58;;;;;;;2.42;1.20;;;21.80;65.10;;;;;;4141988;28;20817;-67
2023/04/30 10:25:22;;;;;;;5.32;1.05;;;21.80;64.60;;;;;;4143449;28;20030;-60
2023/04/30 10:27:45;;;;;;;4.03;1.00;;;21.80;64.50;;;;;;4141589;28;20037;-63
2023/04/30 10:30:10;;;;;;;2.25;0.70;;;21.80;64.90;;;;;;4142228;28;20076;-64
2023/04/30 10:32:43;;;;;;;2.00;0.70;;;21.70;65.10;;;;;;4128563;28;20494;-64
2023/04/30 10:35:26;;;;;;;0.85;0.50;;;21.70;65.20;;;;;;4142109;28;20097;-63
2023/04/30 10:38:17;;;;;;;1.15;0.52;;;21.80;65.30;;;;;;4142111;28;20050;-66
2023/04/30 10:40:40;;;;;;;2.30;0.50;;;21.80;65.40;;;;;;4144404;28;20045;-64
2023/04/30 10:43:02;;;;;;;2.42;0.77;;;21.80;65.50;;;;;;4144113;28;20055;-71
2023/04/30 10:45:38;;;;;;;2.08;0.32;;;21.80;65.50;;;;;;4146185;28;20241;-63
2023/04/30 10:48:02;;;;;;;1.33;0.40;;;21.80;65.60;;;;;;4142848;28;20038;-64
2023/04/30 10:50:25;;;;;;;1.00;0.60;;;21.80;65.60;;;;;;4143602;28;20413;-62
2023/04/30 10:53:01;;;;;;;2.80;0.85;;;21.80;65.60;;;;;;4142708;28;20048;-64
2023/04/30 10:55:24;;;;;;;1.45;0.43;;;21.80;65.70;;;;;;4142666;28;20041;-64
2023/04/30 10:57:48;;;;;;;0.63;0.60;;;21.80;65.90;;;;;;4143632;28;20048;-60
2023/04/30 11:00:13;;;;;;;2.80;0.90;;;21.90;65.80;;;;;;4144384;28;20080;-60
2023/04/30 11:02:47;;;;;;;2.45;0.75;;;21.90;65.90;;;;;;4140887;28;20046;-59
2023/04/30 11:05:13;;;;;;;;;;;21.90;65.90;;;;;;4144429;28;20108;-60
2023/04/30 11:07:35;;;;;;;4.40;1.00;;;21.90;66.50;;;;;;4139879;28;19913;-60
2023/04/30 11:09:59;;;;;;;3.25;0.60;;;21.80;65.90;;;;;;4125223;28;20050;-59
2023/04/30 11:12:27;;;;;;;1.50;0.60;;;21.80;65.80;;;;;;4143932;28;20042;-58
2023/04/30 11:14:50;;;;;;;5.55;0.73;;;21.90;65.90;;;;;;4143301;28;20116;-64
2023/04/30 11:17:21;;;;;;;1.23;0.60;;;21.80;66.10;;;;;;4129962;28;20039;-60
2023/04/30 11:19:48;;;;;;;4.03;1.30;;;21.90;66.10;;;;;;4128688;28;20310;-59
2023/04/30 11:22:10;;;;;;;0.93;0.70;;;21.90;66.80;;;;;;4141730;28;20461;-70
2023/04/30 11:24:51;;;;;;;1.88;0.80;;;21.90;65.80;;;;;;4141131;28;20042;-64
2023/04/30 11:27:14;;;;;;;5.68;0.70;;;21.90;65.80;;;;;;4143769;28;20050;-67
2023/04/30 11:29:37;;;;;;;1.05;0.50;;;21.90;66.20;;;;;;4143477;28;20042;-69
2023/04/30 11:32:04;;;;;;;1.50;0.80;;;21.90;65.60;;;;;;4144082;28;20050;-67
2023/04/30 11:34:28;;;;;;;2.17;0.63;;;21.90;65.60;;;;;;4140249;28;20041;-68
2023/04/30 11:36:51;;;;;;;3.88;0.75;;;21.90;65.50;;;;;;4137903;28;20064;-65
2023/04/30 11:39:16;;;;;;;5.03;0.77;;;21.90;65.60;;;;;;4131501;28;20046;-68
2023/04/30 11:41:45;;;;;;;2.95;0.63;;;21.90;65.60;;;;;;4143750;28;20052;-63
2023/04/30 11:44:25;;;;;;;1.08;0.50;;;21.90;65.60;;;;;;4143383;28;20037;-65
2023/04/30 11:46:48;;;;;;;2.00;0.80;;;21.90;65.50;;;;;;4124543;28;20458;-63
2023/04/30 11:49:11;;;;;;;1.27;0.40;;;21.90;65.40;;;;;;4140506;28;20033;-69
2023/04/30 11:51:37;;;;;;;2.20;0.60;;;21.90;65.30;;;;;;4140203;28;20168;-64
2023/04/30 11:54:00;;;;;;;1.70;0.85;;;21.90;65.20;;;;;;4140304;28;20066;-66
2023/04/30 11:56:24;;;;;;;3.30;0.82;;;21.90;64.80;;;;;;4141566;28;20044;-63
2023/04/30 11:58:47;;;;;;;3.78;1.02;;;21.90;64.50;;;;;;4126646;28;20047;-67
2023/04/30 12:01:10;;;;;;;67.80;8.90;;;21.90;63.60;;;;;;4140769;28;20034;-63
2023/04/30 12:03:33;;;;;;;41.38;4.50;;;21.80;63.70;;;;;;4138236;28;20061;-63
2023/04/30 12:05:55;;;;;;;28.80;2.90;;;21.80;64.20;;;;;;4142013;28;20037;-72
2023/04/30 12:08:19;;;;;;;11.88;2.00;;;21.70;64.40;;;;;;4142256;28;20117;-67
2023/04/30 12:10:41;;;;;;;8.23;1.58;;;21.70;65.50;;;;;;4141886;28;20056;-66
2023/04/30 12:13:04;;;;;;;23.52;1.67;;;21.70;64.90;;;;;;4140804;28;20113;-62
2023/04/30 12:15:27;;;;;;;4.28;1.05;;;21.70;64.90;;;;;;4143927;28;20406;-65
2023/04/30 12:17:50;;;;;;;2.03;0.68;;;21.70;65.00;;;;;;4144559;28;20069;-61
2023/04/30 12:20:14;;;;;;;5.10;1.05;;;21.70;65.10;;;;;;4140191;28;20375;-62
2023/04/30 12:22:37;;;;;;;6.40;0.88;;;21.60;65.80;;;;;;4138437;28;20042;-62
2023/04/30 12:25:01;;;;;;;0.38;0.30;;;21.60;66.00;;;;;;4138553;28;20088;-65
2023/04/30 12:27:23;;;;;;;12.70;0.98;;;21.60;65.40;;;;;;4140624;28;20033;-66
2023/04/30 12:29:47;;;;;;;2.47;0.50;;;21.60;65.50;;;;;;4116473;28;20046;-66
2023/04/30 12:32:10;;;;;;;1.60;0.60;;;21.50;65.40;;;;;;4140613;28;20030;-63